createdAt,value
2022-10-05T00:03:59.203Z,100897.72
2022-10-05T00:08:13.174Z,100896.25
2022-10-05T00:12:17.336Z,100900.69
2022-10-05T00:16:22.210Z,100899.63
2022-10-05T00:20:27.916Z,100887.38
2022-10-05T00:24:31.176Z,100886.13
2022-10-05T00:28:34.153Z,100885.28
2022-10-05T00:32:37.058Z,100877.28
2022-10-05T00:36:41.665Z,100894.19
2022-10-05T00:41:03.391Z,100884.03
2022-10-05T00:45:10.606Z,100883.81
2022-10-05T00:49:23.617Z,100887.00
2022-10-05T00:53:39.360Z,100893.72
2022-10-05T00:57:58.491Z,100896.06
2022-10-05T01:02:06.678Z,100897.97
2022-10-05T01:06:17.761Z,100891.66
2022-10-05T01:10:28.859Z,100883.63
2022-10-05T01:14:41.081Z,100884.03
2022-10-05T01:18:53.576Z,100876.81
2022-10-05T01:23:25.149Z,100877.50
2022-10-05T01:27:46.593Z,100872.19
2022-10-05T01:31:57.332Z,100871.72
2022-10-05T01:36:10.235Z,100871.34
2022-10-05T01:40:20.431Z,100863.69
2022-10-05T01:44:30.978Z,100865.41
2022-10-05T01:48:45.107Z,100861.63
2022-10-05T01:52:57.603Z,100862.44
2022-10-05T01:57:07.677Z,100859.00
2022-10-05T02:01:23.268Z,100855.19
2022-10-05T02:05:33.488Z,100853.88
2022-10-05T02:09:40.842Z,100849.72
2022-10-05T02:13:47.348Z,100845.66
2022-10-05T02:17:55.831Z,100854.31
2022-10-05T02:22:06.854Z,100839.53
2022-10-05T02:26:12.488Z,100832.75
2022-10-05T02:30:18.160Z,100832.31
2022-10-05T02:34:24.704Z,100827.19
2022-10-05T02:38:37.541Z,100824.19
2022-10-05T02:42:50.410Z,100818.06
2022-10-05T02:47:00.414Z,100815.69
2022-10-05T02:51:15.655Z,100808.97
2022-10-05T02:55:25.851Z,100804.72
2022-10-05T02:59:35.651Z,100793.09
2022-10-05T03:03:42.988Z,100797.53
2022-10-05T03:07:53.829Z,100792.03
2022-10-05T03:12:06.865Z,100792.22
2022-10-05T03:16:34.231Z,100774.44
2022-10-05T03:20:45.229Z,100764.50
2022-10-05T03:25:19.266Z,100754.75
2022-10-05T03:29:31.069Z,100759.25
2022-10-05T03:33:43.829Z,100761.13
2022-10-05T03:37:52.406Z,100759.44
2022-10-05T03:42:04.359Z,100756.88
2022-10-05T03:46:14.881Z,100751.91
2022-10-05T03:50:32.251Z,100763.50
2022-10-05T03:54:39.781Z,100776.00
2022-10-05T03:58:51.838Z,100768.59
2022-10-05T04:03:01.795Z,100757.94
2022-10-05T04:07:07.530Z,100755.47
2022-10-05T04:11:15.527Z,100744.72
2022-10-05T04:15:28.393Z,100751.34
2022-10-05T04:19:38.091Z,100747.22
2022-10-05T04:23:48.010Z,100748.56
2022-10-05T04:27:56.409Z,100748.88
2022-10-05T04:32:24.071Z,100758.47
2022-10-05T04:36:32.986Z,100761.59
2022-10-05T04:40:51.053Z,100767.09
2022-10-05T04:45:05.220Z,100763.09
2022-10-05T04:49:31.851Z,100755.47
2022-10-05T04:53:40.629Z,100760.03
2022-10-05T04:57:51.659Z,100762.09
2022-10-05T05:02:06.877Z,100761.78
2022-10-05T05:06:21.681Z,100764.53
2022-10-05T05:10:45.023Z,100760.69
2022-10-05T05:15:17.718Z,100759.13
2022-10-05T05:19:34.862Z,100752.31
2022-10-05T05:23:45.491Z,100755.19
2022-10-05T05:27:53.530Z,100756.78
2022-10-05T05:32:08.513Z,100741.69
2022-10-05T05:36:28.930Z,100734.91
2022-10-05T05:40:35.753Z,100733.97
2022-10-05T05:44:46.613Z,100740.16
2022-10-05T05:48:50.802Z,100731.81
2022-10-05T05:52:56.732Z,100725.03
2022-10-05T05:57:11.999Z,100731.50
2022-10-05T06:01:33.336Z,100729.97
2022-10-05T06:05:43.357Z,100719.97
2022-10-05T06:09:50.267Z,100725.38
2022-10-05T06:13:55.653Z,100718.94
2022-10-05T06:18:04.183Z,100721.19
2022-10-05T06:22:14.739Z,100726.00
2022-10-05T06:26:41.076Z,100730.13
2022-10-05T06:30:59.403Z,100726.28
2022-10-05T06:35:13.292Z,100726.66
2022-10-05T06:39:34.466Z,100731.22
2022-10-05T06:43:58.277Z,100718.69
2022-10-05T06:48:11.195Z,100712.44
2022-10-05T06:52:20.993Z,100717.03
2022-10-05T06:56:33.879Z,100704.38
2022-10-05T07:00:42.079Z,100715.88
2022-10-05T07:05:02.557Z,100708.34
2022-10-05T07:09:16.818Z,100706.22
2022-10-05T07:13:46.258Z,100696.53
2022-10-05T07:18:01.316Z,100686.22
2022-10-05T07:22:35.473Z,100690.19
2022-10-05T07:26:47.278Z,100681.06
2022-10-05T07:30:57.647Z,100682.16
2022-10-05T07:35:06.327Z,100683.84
2022-10-05T07:39:18.106Z,100686.13
2022-10-05T07:43:51.399Z,100687.94
2022-10-05T07:47:58.648Z,100688.03
2022-10-05T07:52:04.231Z,100704.50
2022-10-05T07:56:15.851Z,100693.91
2022-10-05T08:00:21.608Z,100688.00
2022-10-05T08:04:29.261Z,100691.47
2022-10-05T08:08:42.080Z,100692.19
2022-10-05T08:13:01.596Z,100694.19
2022-10-05T08:17:13.035Z,100698.13
2022-10-05T08:21:21.007Z,100703.78
2022-10-05T08:25:27.778Z,100698.13
2022-10-05T08:29:35.988Z,100694.28
2022-10-05T08:33:47.836Z,100698.84
2022-10-05T08:37:52.066Z,100692.41
2022-10-05T08:42:17.764Z,100686.53
2022-10-05T08:46:49.301Z,100686.03
2022-10-05T08:51:17.362Z,100692.94
2022-10-05T08:55:42.594Z,100688.41
2022-10-05T09:00:06.518Z,100683.94
2022-10-05T09:04:30.131Z,100680.59
2022-10-05T09:09:09.335Z,100676.72
2022-10-05T09:13:40.657Z,100657.38
2022-10-05T09:18:10.539Z,100658.47
2022-10-05T09:22:17.715Z,100666.16
2022-10-05T09:26:43.977Z,100649.06
2022-10-05T09:30:59.679Z,100659.63
2022-10-05T09:35:17.157Z,100656.78
2022-10-05T09:39:42.410Z,100669.03
2022-10-05T09:44:07.320Z,100657.63
2022-10-05T09:48:34.916Z,100666.25
2022-10-05T09:52:57.408Z,100656.50
2022-10-05T09:57:18.481Z,100659.72
2022-10-05T10:01:37.764Z,100649.28
2022-10-05T10:06:29.937Z,100651.56
2022-10-05T10:10:57.949Z,100633.56
2022-10-05T10:15:43.508Z,100636.19
2022-10-05T10:20:17.758Z,100630.44
2022-10-05T10:24:38.704Z,100634.72
2022-10-05T10:29:06.126Z,100628.34
2022-10-05T10:33:24.115Z,100634.81
2022-10-05T10:37:39.849Z,100635.69
2022-10-05T10:42:06.891Z,100630.47
2022-10-05T10:46:21.718Z,100619.47
2022-10-05T10:50:41.179Z,100613.97
2022-10-05T10:55:21.285Z,100602.28
2022-10-05T11:00:07.241Z,100593.25
2022-10-05T11:04:43.703Z,100599.28
2022-10-05T11:09:18.894Z,100587.53
2022-10-05T11:13:38.150Z,100586.22
2022-10-05T11:18:01.036Z,100572.47
2022-10-05T11:22:22.464Z,100548.94
2022-10-05T11:26:43.266Z,100547.09
2022-10-05T11:31:19.075Z,100548.66
2022-10-05T11:35:59.744Z,100535.56
2022-10-05T11:40:36.429Z,100538.91
2022-10-05T11:45:17.083Z,100516.66
2022-10-05T11:49:35.260Z,100524.97
2022-10-05T11:53:42.493Z,100510.56
2022-10-05T11:57:51.645Z,100515.25
2022-10-05T12:02:02.738Z,100491.81
2022-10-05T12:06:31.955Z,100499.47
2022-10-05T12:10:43.946Z,100463.44
2022-10-05T12:14:58.345Z,100467.00
2022-10-05T12:19:08.033Z,100474.28
2022-10-05T12:23:18.678Z,100449.75
2022-10-05T12:27:27.401Z,100450.09
2022-10-05T12:31:41.741Z,100449.03
2022-10-05T12:35:52.324Z,100429.13
2022-10-05T12:39:59.163Z,100427.09
2022-10-05T12:44:12.489Z,100419.03
2022-10-05T12:48:32.399Z,100411.38
2022-10-05T12:53:03.456Z,100404.19
2022-10-05T12:57:14.503Z,100390.75
2022-10-05T13:01:28.431Z,100387.50
2022-10-05T13:05:38.525Z,100388.03
2022-10-05T13:09:54.362Z,100376.72
2022-10-05T13:14:09.470Z,100378.66
2022-10-05T13:18:21.146Z,100359.84
2022-10-05T13:22:32.887Z,100364.63
2022-10-05T13:26:41.055Z,100358.50
2022-10-05T13:30:54.520Z,100372.50
2022-10-05T13:35:13.279Z,100346.13
2022-10-05T13:39:31.724Z,100364.13
2022-10-05T13:43:44.174Z,100362.97
2022-10-05T13:48:01.320Z,100371.81
2022-10-05T13:52:21.169Z,100376.53
2022-10-05T13:56:30.452Z,100357.84
2022-10-05T14:00:41.401Z,100374.25
2022-10-05T14:04:46.975Z,100366.91
2022-10-05T14:08:53.727Z,100373.75
2022-10-05T14:12:56.797Z,100384.72
2022-10-05T14:21:22.238Z,100379.28
2022-10-05T14:25:25.746Z,100381.06
2022-10-05T14:29:36.527Z,100382.19
2022-10-05T14:33:41.112Z,100378.59
2022-10-05T14:37:48.490Z,100378.56
2022-10-05T14:41:51.929Z,100381.69
2022-10-05T14:45:57.421Z,100376.50
2022-10-05T14:50:18.256Z,100383.34
2022-10-05T14:54:34.204Z,100393.00
2022-10-05T14:59:00.023Z,100375.84
2022-10-05T15:03:16.385Z,100396.13
2022-10-05T15:07:25.911Z,100425.81
2022-10-05T15:11:38.995Z,100419.41
2022-10-05T15:15:48.813Z,100403.06
2022-10-05T15:20:01.783Z,100412.84
2022-10-05T15:28:16.824Z,100427.78
2022-10-05T15:32:35.630Z,100441.44
2022-10-05T15:36:44.303Z,100440.66
2022-10-05T15:40:59.125Z,100457.09
2022-10-05T15:45:15.486Z,100463.81
2022-10-05T15:49:27.347Z,100476.59
2022-10-05T15:53:38.939Z,100474.13
2022-10-05T15:57:50.574Z,100482.16
2022-10-05T16:02:00.947Z,100513.91
2022-10-05T16:06:28.272Z,100508.28
2022-10-05T16:10:35.044Z,100523.88
2022-10-05T16:14:56.593Z,100534.44
2022-10-05T16:19:09.539Z,100543.59
2022-10-05T16:23:23.779Z,100542.19
2022-10-05T16:27:37.442Z,100541.66
2022-10-05T16:31:55.333Z,100564.91
2022-10-05T16:36:06.383Z,100568.94
2022-10-05T16:40:19.111Z,100579.75
2022-10-05T16:44:34.795Z,100578.91
2022-10-05T16:48:47.722Z,100597.94
2022-10-05T16:52:58.044Z,100587.78
2022-10-05T16:57:10.184Z,100591.66
2022-10-05T17:01:24.554Z,100592.22
2022-10-05T17:05:44.323Z,100606.13
2022-10-05T17:10:21.999Z,100609.50
2022-10-05T17:14:38.827Z,100609.59
2022-10-05T17:19:21.883Z,100614.91
2022-10-05T17:23:33.303Z,100622.22
2022-10-05T17:27:52.365Z,100609.00
2022-10-05T17:32:09.892Z,100617.13
2022-10-05T17:36:19.153Z,100621.06
2022-10-05T17:40:35.978Z,100620.00
2022-10-05T17:44:38.830Z,100628.38
2022-10-05T17:49:08.861Z,100645.59
2022-10-05T17:53:39.981Z,100648.81
2022-10-05T17:57:44.207Z,100661.25
2022-10-05T18:02:21.633Z,100662.88
2022-10-05T18:06:44.884Z,100662.72
2022-10-05T18:11:13.465Z,100668.81
2022-10-05T18:15:45.003Z,100665.22
2022-10-05T18:20:14.880Z,100667.38
2022-10-05T18:24:53.290Z,100682.72
2022-10-05T18:29:14.174Z,100672.25
2022-10-05T18:33:35.929Z,100682.09
2022-10-05T18:37:52.793Z,100681.56
2022-10-05T18:42:08.034Z,100689.81
2022-10-05T18:46:30.010Z,100693.22
2022-10-05T18:50:41.500Z,100694.44
2022-10-05T18:54:55.011Z,100697.69
2022-10-05T18:59:14.357Z,100705.94
2022-10-05T19:03:25.084Z,100704.03
2022-10-05T19:07:40.835Z,100713.66
2022-10-05T19:11:55.455Z,100724.28
2022-10-05T19:16:11.894Z,100707.78
2022-10-05T19:20:22.424Z,100709.69
2022-10-05T19:24:49.619Z,100717.25
2022-10-05T19:29:04.632Z,100725.50
2022-10-05T19:33:21.083Z,100718.28
2022-10-05T19:37:33.393Z,100723.84
2022-10-05T19:41:54.053Z,100729.91
2022-10-05T19:46:06.931Z,100728.88
2022-10-05T19:50:28.877Z,100733.88
2022-10-05T19:54:33.650Z,100731.13
2022-10-05T19:58:43.265Z,100743.31
2022-10-05T20:02:46.308Z,100752.97
2022-10-05T20:06:49.267Z,100758.72
2022-10-05T20:11:07.229Z,100767.91
2022-10-05T20:15:36.409Z,100772.06
2022-10-05T20:19:57.752Z,100776.06
2022-10-05T20:24:11.482Z,100775.72
2022-10-05T20:28:31.664Z,100772.19
2022-10-05T20:32:36.105Z,100782.72
2022-10-05T20:36:43.650Z,100788.81
2022-10-05T20:40:46.811Z,100794.63
2022-10-05T20:44:54.310Z,100814.88
2022-10-05T20:49:00.897Z,100833.72
2022-10-05T20:53:07.270Z,100828.16
2022-10-05T20:57:13.526Z,100831.44
2022-10-05T21:01:18.438Z,100841.97
2022-10-05T21:05:22.830Z,100846.13
2022-10-05T21:09:26.427Z,100865.72
2022-10-05T21:13:29.174Z,100885.47
2022-10-05T21:17:32.067Z,100879.19
2022-10-05T21:21:36.762Z,100984.09
2022-10-05T21:25:39.505Z,101001.66
2022-10-05T21:29:44.263Z,101018.03
2022-10-05T21:33:47.139Z,101009.78
2022-10-05T21:37:51.447Z,101014.63
2022-10-05T21:41:54.179Z,101018.09
2022-10-05T21:45:57.426Z,101009.81
2022-10-05T21:50:00.945Z,101017.00
2022-10-05T21:54:09.819Z,101023.47
2022-10-05T21:58:15.044Z,101030.78
2022-10-05T22:02:17.838Z,101040.91
2022-10-05T22:06:20.609Z,101049.47
2022-10-05T22:10:25.187Z,101060.78
2022-10-05T22:14:28.398Z,101059.09
2022-10-05T22:18:31.659Z,101073.84
2022-10-05T22:22:35.050Z,101078.22
2022-10-05T22:26:40.288Z,101077.34
2022-10-05T22:30:46.130Z,101096.81
2022-10-05T22:34:48.863Z,101097.41
2022-10-05T22:38:53.852Z,101106.56
2022-10-05T22:42:58.450Z,101123.00
2022-10-05T22:47:01.739Z,101113.19
2022-10-05T22:51:04.621Z,101130.25
2022-10-05T22:55:08.439Z,101163.44
2022-10-05T22:59:12.742Z,101212.03
2022-10-05T23:03:16.464Z,101226.28
2022-10-05T23:07:19.319Z,101235.75
2022-10-05T23:11:25.892Z,101255.31
2022-10-05T23:15:30.406Z,101255.75
2022-10-05T23:19:33.152Z,101262.94
2022-10-05T23:23:37.476Z,101271.81
2022-10-05T23:27:41.933Z,101263.34
2022-10-05T23:31:46.132Z,101270.53
2022-10-05T23:35:48.953Z,101271.81
2022-10-05T23:39:51.783Z,101267.56
2022-10-05T23:43:56.103Z,101275.59
2022-10-05T23:48:00.305Z,101284.06
2022-10-05T23:52:03.043Z,101291.25
2022-10-05T23:56:06.454Z,101303.53
